Time;durP1;ratioP1;P1;durP2;ratioP2;P2;SDS_P1;SDS_P2;PMS_P1;PMS_P2;Temp;Humidity;BMP_temperature;BMP_pressure;BME280_temperature;BME280_humidity;BME280_pressure;Samples;Min_cycle;Max_cycle;Signal;HPM_P1;HPM_P2
2023/03/09 00:00:52;;;;;;;17.88;10.27;;;;;;;;;;5042053;28;20191;-61
2023/03/09 00:03:18;;;;;;;18.10;9.38;;;;;;;;;;5051282;28;20032;-62
2023/03/09 00:05:44;;;;;;;15.52;9.90;;;;;;;;;;5036149;28;20026;-62
2023/03/09 00:08:11;;;;;;;16.13;11.93;;;;;;;;;;5044690;28;20063;-62
2023/03/09 00:10:41;;;;;;;16.27;9.98;;;;;;;;;;5041272;28;20052;-61
2023/03/09 00:13:07;;;;;;;16.02;9.65;;;;;;;;;;5036527;28;20086;-62
2023/03/09 00:15:33;;;;;;;14.55;8.13;;;;;;;;;;5038174;28;20680;-61
2023/03/09 00:17:59;;;;;;;12.55;7.32;;;;;;;;;;5042477;28;20055;-61
2023/03/09 00:20:26;;;;;;;15.10;9.60;;;;;;;;;;5048531;28;20037;-61
2023/03/09 00:22:53;;;;;;;18.08;9.05;;;;;;;;;;5043806;28;20470;-62
2023/03/09 00:25:21;;;;;;;19.45;8.90;;;;;;;;;;5041468;28;20040;-62
2023/03/09 00:27:48;;;;;;;14.68;9.00;;;;;;;;;;5047423;28;20122;-62
2023/03/09 00:30:15;;;;;;;15.45;9.52;;;;;;;;;;5043492;28;20147;-62
2023/03/09 00:32:41;;;;;;;16.50;9.00;;;;;;;;;;5047118;28;20083;-62
2023/03/09 00:35:08;;;;;;;22.95;9.43;;;;;;;;;;5045609;28;20103;-62
2023/03/09 00:37:34;;;;;;;13.48;8.82;;;;;;;;;;5027839;28;20285;-62
2023/03/09 00:40:00;;;;;;;15.55;8.88;;;;;;;;;;5026850;28;20558;-62
2023/03/09 00:42:27;;;;;;;15.45;7.82;;;;;;;;;;5047539;28;20048;-62
2023/03/09 00:44:53;;;;;;;12.80;8.25;;;;;;;;;;5046205;28;20181;-63
2023/03/09 00:47:19;;;;;;;14.15;7.90;;;;;;;;;;5046788;28;20526;-62
2023/03/09 00:49:45;;;;;;;16.90;8.63;;;;;;;;;;5046394;28;20044;-62
2023/03/09 00:52:11;;;;;;;17.58;8.80;;;;;;;;;;5046037;28;20220;-62
2023/03/09 00:54:37;;;;;;;16.45;8.45;;;;;;;;;;5008567;28;20400;-62
2023/03/09 00:57:03;;;;;;;11.05;8.02;;;2.60;99.90;;;;;;5051636;28;20054;-62
2023/03/09 00:59:29;;;;;;;15.02;9.18;;;2.40;99.90;;;;;;5048999;28;20292;-62
2023/03/09 01:01:55;;;;;;;13.73;8.32;;;;;;;;;;5018651;28;20136;-62
2023/03/09 01:04:21;;;;;;;16.23;9.48;;;;;;;;;;5046723;28;20373;-62
2023/03/09 01:06:47;;;;;;;20.10;9.00;;;;;;;;;;5051474;28;20132;-63
2023/03/09 01:09:13;;;;;;;15.23;8.93;;;;;;;;;;5044052;28;20536;-62
2023/03/09 01:11:40;;;;;;;14.65;8.43;;;;;;;;;;5050241;28;20050;-62
2023/03/09 01:14:06;;;;;;;18.02;9.75;;;;;;;;;;5044524;28;20479;-62
2023/03/09 01:16:32;;;;;;;17.92;9.98;;;;;;;;;;5050516;28;20455;-62
2023/03/09 01:18:58;;;;;;;20.30;10.30;;;;;;;;;;5026498;28;20518;-62
2023/03/09 01:21:24;;;;;;;13.70;8.23;;;;;;;;;;5050375;28;20057;-63
2023/03/09 01:23:50;;;;;;;16.80;9.43;;;;;;;;;;5048434;28;20090;-63
2023/03/09 01:26:18;;;;;;;12.25;8.55;;;;;;;;;;5050489;28;20045;-63
2023/03/09 01:28:44;;;;;;;14.63;8.40;;;;;;;;;;5050379;28;20221;-62
2023/03/09 01:31:12;;;;;;;16.10;8.85;;;;;;;;;;5053007;28;20437;-63
2023/03/09 01:33:38;;;;;;;14.73;8.88;;;;;;;;;;5049056;28;20098;-63
2023/03/09 01:36:06;;;;;;;13.00;8.73;;;;;;;;;;5049707;28;20048;-62
2023/03/09 01:38:32;;;;;;;15.80;8.80;;;;;;;;;;5052502;28;20045;-63
2023/03/09 01:40:58;;;;;;;14.23;9.23;;;;;;;;;;5048543;28;20562;-63
2023/03/09 01:43:31;;;;;;;15.88;9.10;;;;;;;;;;5048260;28;20499;-62
2023/03/09 01:46:16;;;;;;;12.68;8.63;;;;;;;;;;5048458;28;20099;-62
2023/03/09 01:48:42;;;;;;;15.48;8.82;;;;;;;;;;5047518;28;20072;-63
2023/03/09 01:51:09;;;;;;;14.50;8.38;;;;;;;;;;5045361;28;20044;-63
2023/03/09 01:53:35;;;;;;;13.85;8.43;;;;;;;;;;5047129;28;20033;-63
2023/03/09 01:56:01;;;;;;;12.07;7.88;;;;;;;;;;5027966;28;20495;-63
2023/03/09 01:58:29;;;;;;;16.60;10.13;;;;;;;;;;5046517;28;20070;-62
2023/03/09 02:00:56;;;;;;;14.48;8.45;;;;;;;;;;5040761;28;20045;-62
2023/03/09 02:03:24;;;;;;;13.13;8.05;;;;;;;;;;5030555;28;20094;-63
2023/03/09 02:05:54;;;;;;;14.15;9.35;;;;;;;;;;5045659;28;20037;-63
2023/03/09 02:08:21;;;;;;;16.42;9.30;;;;;;;;;;5046824;28;20037;-62
2023/03/09 02:10:58;;;;;;;14.02;8.82;;;;;;;;;;5044081;28;20033;-63
2023/03/09 02:13:26;;;;;;;12.90;8.30;;;;;;;;;;5044707;28;20044;-63
2023/03/09 02:15:53;;;;;;;12.30;9.23;;;;;;;;;;5049004;28;20456;-62
2023/03/09 02:18:19;;;;;;;17.15;10.23;;;;;;;;;;5048958;28;20438;-63
2023/03/09 02:20:49;;;;;;;13.02;8.38;;;;;;;;;;5049740;28;20418;-70
2023/03/09 02:23:36;;;;;;;15.20;9.13;;;;;;;;;;5047654;28;20041;-64
2023/03/09 02:26:09;;;;;;;12.90;7.93;;;;;;;;;;5048863;28;20410;-62
2023/03/09 02:28:35;;;;;;;16.08;10.63;;;;;;;;;;5024698;28;20071;-62
2023/03/09 02:31:02;;;;;;;16.63;10.20;;;;;;;;;;5036447;28;20061;-63
2023/03/09 02:33:30;;;;;;;19.50;10.82;;;;;;;;;;5048755;28;20045;-63
2023/03/09 02:35:57;;;;;;;15.90;10.35;;;;;;;;;;5045649;28;20095;-63
2023/03/09 02:38:24;;;;;;;16.08;9.05;;;;;;;;;;5044836;28;20112;-63
2023/03/09 02:40:50;;;;;;;16.98;8.90;;;;;;;;;;5053107;28;20045;-63
2023/03/09 02:43:26;;;;;;;17.77;9.80;;;;;;;;;;5050845;28;20443;-62
2023/03/09 02:45:53;;;;;;;15.93;11.10;;;;;;;;;;5031007;28;20515;-63
2023/03/09 02:48:19;;;;;;;16.10;9.85;;;;;;;;;;5046026;28;20029;-62
2023/03/09 02:50:45;;;;;;;19.15;11.35;;;;;;;;;;5031118;28;20131;-63
2023/03/09 02:53:11;;;;;;;18.35;11.30;;;;;;;;;;5044539;28;20072;-62
2023/03/09 02:55:37;;;;;;;14.73;9.02;;;;;;;;;;5047257;28;20037;-63
2023/03/09 02:58:03;;;;;;;18.15;10.45;;;;;;;;;;5046410;28;20045;-63
2023/03/09 03:00:30;;;;;;;20.63;10.57;;;;;;;;;;5026368;28;20136;-63
2023/03/09 03:02:56;;;;;;;22.15;12.43;;;;;;;;;;5045379;28;20503;-62
2023/03/09 03:05:22;;;;;;;14.20;10.15;;;;;;;;;;5047729;28;20056;-63
2023/03/09 03:07:48;;;;;;;19.92;10.10;;;;;;;;;;5046505;28;20079;-63
2023/03/09 03:10:15;;;;;;;19.83;11.10;;;;;;;;;;5029134;28;20037;-63
2023/03/09 03:12:41;;;;;;;19.27;11.25;;;;;;;;;;5050618;28;20129;-62
2023/03/09 03:15:07;;;;;;;22.75;11.20;;;;;;;;;;5029393;28;20056;-63
2023/03/09 03:17:34;;;;;;;18.98;11.48;;;;;;;;;;5047822;28;20086;-62
2023/03/09 03:20:00;;;;;;;18.08;10.85;;;;;;;;;;5030077;28;20041;-62
2023/03/09 03:22:26;;;;;;;21.77;13.02;;;;;;;;;;5046864;28;20447;-63
2023/03/09 03:24:52;;;;;;;20.15;10.07;;;;;;;;;;5045983;28;20033;-63
2023/03/09 03:27:19;;;;;;;19.58;11.32;;;;;;;;;;5030044;28;20041;-63
2023/03/09 03:29:45;;;;;;;18.92;10.68;;;;;;;;;;5049357;28;20037;-63
2023/03/09 03:32:12;;;;;;;23.73;11.65;;;;;;;;;;5048516;28;20051;-63
2023/03/09 03:34:38;;;;;;;15.30;10.50;;;;;;;;;;5045205;28;20502;-63
2023/03/09 03:37:04;;;;;;;17.50;10.80;;;;;;;;;;5047399;28;20447;-62
2023/03/09 03:39:30;;;;;;;19.35;11.35;;;;;;;;;;5035719;28;20047;-62
2023/03/09 03:41:56;;;;;;;16.55;10.73;;;;;;;;;;5047659;28;20090;-63
2023/03/09 03:44:22;;;;;;;18.45;11.38;;;;;;;;;;5037833;28;20553;-63
2023/03/09 03:46:48;;;;;;;20.20;11.90;;;;;;;;;;5046961;28;20135;-63
2023/03/09 03:49:15;;;;;;;21.83;11.85;;;;;;;;;;5028564;28;20033;-63
2023/03/09 03:51:41;;;;;;;18.75;11.13;;;;;;;;;;5046968;28;20040;-63
2023/03/09 03:54:07;;;;;;;22.83;12.65;;;;;;;;;;4999679;28;20045;-63
2023/03/09 03:56:34;;;;;;;21.77;11.55;;;;;;;;;;5045244;28;20407;-63
2023/03/09 03:59:00;;;;;;;21.58;10.82;;;;;;;;;;5049154;28;20204;-62
2023/03/09 04:01:26;;;;;;;21.70;12.32;;;;;;;;;;5047783;28;20491;-63
2023/03/09 04:03:52;;;;;;;19.63;11.95;;;;;;;;;;5039627;28;20527;-63
2023/03/09 04:06:18;;;;;;;18.17;12.25;;;;;;;;;;5016912;28;20127;-63
2023/03/09 04:08:44;;;;;;;21.48;12.38;;;;;;;;;;5042462;28;20044;-63
2023/03/09 04:11:11;;;;;;;22.83;13.00;;;;;;;;;;5029751;28;20503;-63
2023/03/09 04:13:37;;;;;;;21.80;13.15;;;;;;;;;;5042088;28;20037;-63
2023/03/09 04:16:04;;;;;;;27.83;14.88;;;;;;;;;;5040920;28;20040;-63
2023/03/09 04:18:30;;;;;;;19.55;12.80;;;;;;;;;;5046830;28;20041;-63
2023/03/09 04:20:56;;;;;;;25.05;13.93;;;;;;;;;;5046687;28;20049;-63
2023/03/09 04:23:22;;;;;;;25.48;14.75;;;;;;;;;;5043898;28;20373;-62
2023/03/09 04:25:55;;;;;;;21.27;14.07;;;;;;;;;;5041133;28;20549;-63
2023/03/09 04:28:22;;;;;;;26.02;13.90;;;;;;;;;;5040235;28;20041;-62
2023/03/09 04:30:48;;;;;;;22.10;13.63;;;;;;;;;;5044835;28;20103;-63
2023/03/09 04:33:14;;;;;;;24.42;13.55;;;;;;;;;;5040733;28;20045;-63
2023/03/09 04:35:42;;;;;;;24.42;13.27;;;;;;;;;;5045958;28;20144;-63
2023/03/09 04:38:08;;;;;;;23.73;13.88;;;;;;;;;;5042239;28;20052;-63
2023/03/09 04:40:35;;;;;;;21.08;13.15;;;;;;;;;;5045408;28;20119;-63
2023/03/09 04:43:01;;;;;;;25.63;14.15;;;;;;;;;;5038452;28;20037;-63
2023/03/09 04:45:27;;;;;;;25.02;13.63;;;;;;;;;;5041213;28;20040;-63
2023/03/09 04:47:53;;;;;;;23.13;12.52;;;;;;;;;;5047791;28;20124;-62
2023/03/09 04:50:19;;;;;;;23.15;14.35;;;;;;;;;;5029443;28;20143;-63
2023/03/09 04:52:46;;;;;;;21.67;13.02;;;;;;;;;;5043899;28;20040;-63
2023/03/09 04:55:12;;;;;;;26.35;13.90;;;;;;;;;;5045594;28;20041;-63
2023/03/09 04:57:38;;;;;;;22.38;13.98;;;;;;;;;;5045553;28;20045;-62
2023/03/09 05:00:08;;;;;;;24.63;14.35;;;;;;;;;;5028627;28;20440;-63
2023/03/09 05:02:34;;;;;;;22.77;13.65;;;;;;;;;;5047715;28;20450;-63
2023/03/09 05:05:00;;;;;;;23.00;13.30;;;;;;;;;;5043834;28;20037;-62
2023/03/09 05:07:26;;;;;;;22.13;13.73;;;;;;;;;;5044088;28;20124;-63
2023/03/09 05:09:52;;;;;;;25.70;13.50;;;;;;;;;;5042566;28;20063;-63
2023/03/09 05:12:18;;;;;;;22.45;14.90;;;;;;;;;;5047289;28;20099;-63
2023/03/09 05:14:44;;;;;;;27.33;14.55;;;;;;;;;;5028868;28;20051;-63
2023/03/09 05:17:10;;;;;;;26.05;14.85;;;;;;;;;;5025131;28;20053;-62
2023/03/09 05:19:37;;;;;;;25.33;14.90;;;;;;;;;;5045828;28;20060;-62
2023/03/09 05:22:04;;;;;;;23.13;13.40;;;;;;;;;;5040609;28;20074;-62
2023/03/09 05:24:30;;;;;;;22.88;13.50;;;;;;;;;;5044462;28;20071;-62
2023/03/09 05:26:56;;;;;;;23.75;13.32;;;;;;;;;;5047232;28;20407;-63
2023/03/09 05:29:22;;;;;;;22.33;14.40;;;;;;;;;;5039150;28;20052;-63
2023/03/09 05:31:48;;;;;;;22.02;13.18;;;;;;;;;;5047495;28;20134;-63
2023/03/09 05:34:14;;;;;;;26.80;13.25;;;;;;;;;;5033434;28;20056;-62
2023/03/09 05:36:40;;;;;;;30.30;14.98;;;;;;;;;;5041932;28;20080;-63
2023/03/09 05:39:06;;;;;;;25.55;14.35;;;;;;;;;;5042784;28;20502;-63
2023/03/09 05:41:33;;;;;;;23.40;14.48;;;;;;;;;;5048200;28;20419;-63
2023/03/09 05:43:59;;;;;;;24.52;14.20;;;;;;;;;;5029810;28;20124;-63
2023/03/09 05:46:26;;;;;;;27.02;13.80;;;;;;;;;;5046138;28;20135;-62
2023/03/09 05:48:52;;;;;;;26.35;15.93;;;;;;;;;;5045138;28;20639;-63
2023/03/09 05:51:18;;;;;;;23.70;14.52;;;;;;;;;;5029862;28;20044;-63
2023/03/09 05:53:44;;;;;;;25.90;14.68;;;;;;;;;;5043179;28;20044;-62
2023/03/09 05:56:11;;;;;;;28.35;15.75;;;;;;;;;;5050230;28;20032;-63
2023/03/09 05:58:37;;;;;;;23.98;14.02;;;;;;;;;;5049188;28;20398;-62
2023/03/09 06:01:03;;;;;;;29.17;15.90;;;;;;;;;;5028771;28;20503;-62
2023/03/09 06:03:29;;;;;;;23.35;13.68;;;;;;;;;;5049942;28;20544;-63
2023/03/09 06:06:03;;;;;;;25.52;14.50;;;;;;;;;;5048766;28;20112;-63
2023/03/09 06:08:29;;;;;;;23.25;13.52;;;;;;;;;;5028182;28;20307;-62
2023/03/09 06:10:58;;;;;;;27.02;14.63;;;;;;;;;;5048892;28;20495;-63
2023/03/09 06:13:24;;;;;;;26.00;14.40;;;;;;;;;;5049420;28;20049;-63
2023/03/09 06:15:50;;;;;;;25.45;14.00;;;;;;;;;;5032938;28;20041;-62
2023/03/09 06:18:17;;;;;;;27.20;15.88;;;;;;;;;;5030659;28;20440;-62
2023/03/09 06:20:44;;;;;;;26.05;14.85;;;;;;;;;;5051081;28;20094;-62
2023/03/09 06:23:11;;;;;;;23.30;13.95;;;;;;;;;;5047930;28;20041;-63
2023/03/09 06:25:38;;;;;;;25.33;15.68;;;;;;;;;;5022135;28;20048;-63
2023/03/09 06:28:04;;;;;;;22.27;12.52;;;;;;;;;;5000151;28;20143;-63
2023/03/09 06:30:30;;;;;;;25.75;13.48;;;;;;;;;;5036030;28;20575;-62
2023/03/09 06:32:56;;;;;;;26.40;13.98;;;;;;;;;;5041696;28;20419;-62
2023/03/09 06:35:23;;;;;;;24.45;12.40;;;;;;;;;;5047547;28;20044;-63
2023/03/09 06:37:50;;;;;;;20.08;12.57;;;;;;;;;;5055480;28;20384;-63
2023/03/09 06:40:17;;;;;;;24.35;14.57;;;;;;;;;;5055260;28;20028;-62
2023/03/09 06:42:43;;;;;;;28.17;15.30;;;;;;;;;;5044061;28;20490;-62
2023/03/09 06:45:10;;;;;;;27.98;13.80;;;;;;;;;;5024560;28;20037;-62
2023/03/09 06:47:36;;;;;;;23.08;13.02;;;;;;;;;;5045192;28;20296;-62
2023/03/09 06:50:03;;;;;;;19.75;13.45;;;;;;;;;;5042830;28;20048;-63
2023/03/09 06:52:29;;;;;;;25.55;15.25;;;;;;;;;;5043100;28;20052;-62
2023/03/09 06:54:55;;;;;;;23.00;14.00;;;;;;;;;;5025652;28;20495;-62
2023/03/09 06:57:21;;;;;;;23.88;13.98;;;;;;;;;;5043748;28;20099;-62
2023/03/09 06:59:48;;;;;;;31.60;15.05;;;;;;;;;;5025651;28;20474;-62
2023/03/09 07:02:15;;;;;;;23.23;14.18;;;;;;;;;;5040288;28;20124;-62
2023/03/09 07:04:42;;;;;;;23.23;13.90;;;;;;;;;;5021728;28;20052;-62
2023/03/09 07:07:08;;;;;;;26.92;14.13;;;;;;;;;;5045266;28;20048;-62
2023/03/09 07:09:34;;;;;;;28.10;14.32;;;;;;;;;;5027021;28;20049;-62
2023/03/09 07:12:00;;;;;;;26.48;15.25;;;;;;;;;;5046492;28;20044;-62
2023/03/09 07:14:27;;;;;;;25.00;14.35;;;;;;;;;;5039061;28;20052;-62
2023/03/09 07:16:54;;;;;;;20.13;13.30;;;;;;;;;;5033760;28;20037;-62
2023/03/09 07:19:20;;;;;;;23.38;13.68;;;;;;;;;;5027446;28;20037;-63
2023/03/09 07:21:46;;;;;;;22.45;12.40;;;;;;;;;;5018118;28;20052;-62
2023/03/09 07:24:13;;;;;;;22.58;12.57;;;;;;;;;;5007520;28;20046;-62
2023/03/09 07:26:39;;;;;;;28.08;14.95;;;;;;;;;;5020534;28;20531;-63
2023/03/09 07:29:05;;;;;;;23.00;13.70;;;;;;;;;;5028787;28;20041;-62
2023/03/09 07:31:32;;;;;;;21.83;13.60;;;;;;;;;;5023515;28;20071;-62
2023/03/09 07:33:58;;;;;;;21.77;12.73;;;;;;;;;;5017965;28;20523;-62
2023/03/09 07:36:25;;;;;;;23.08;12.38;;;;;;;;;;5026481;28;20053;-62
2023/03/09 07:38:51;;;;;;;19.55;11.90;;;;;;;;;;5004362;28;20547;-62
2023/03/09 07:41:18;;;;;;;20.20;12.60;;;;;;;;;;5022782;28;20103;-63
2023/03/09 07:43:44;;;;;;;20.98;13.38;;;;;;;;;;5026261;28;20120;-62
2023/03/09 07:46:12;;;;;;;20.58;12.73;;;;;;;;;;5020202;28;20045;-63
2023/03/09 07:48:38;;;;;;;18.70;12.38;;;;;;;;;;5014885;28;20081;-62
2023/03/09 07:51:05;;;;;;;21.13;12.90;;;;;;;;;;5012059;28;20087;-63
2023/03/09 07:53:32;;;;;;;20.45;11.75;;;;;;;;;;5025005;28;20220;-61
2023/03/09 07:56:00;;;;;;;18.90;11.23;;;;;;;;;;5018627;28;20450;-63
2023/03/09 07:58:27;;;;;;;15.82;11.25;;;;;;;;;;5020005;28;20108;-61
2023/03/09 08:00:53;;;;;;;22.00;13.32;;;;;;;;;;5022364;28;20071;-64
2023/03/09 08:03:20;;;;;;;20.30;10.63;;;;;;;;;;5022220;28;20034;-61
2023/03/09 08:05:47;;;;;;;21.33;12.80;;;;;;;;;;5031236;28;20037;-63
2023/03/09 08:08:13;;;;;;;18.83;12.20;;;;;;;;;;5026184;28;20046;-61
2023/03/09 08:10:40;;;;;;;20.65;11.95;;;;;;;;;;5020976;28;20119;-62
2023/03/09 08:13:06;;;;;;;18.40;11.65;;;;;;;;;;5016528;28;20080;-62
2023/03/09 08:15:33;;;;;;;19.60;12.27;;;;;;;;;;5025351;28;20042;-62
2023/03/09 08:18:00;;;;;;;16.75;11.10;;;;;;;;;;4987137;28;20427;-62
2023/03/09 08:20:26;;;;;;;20.27;12.25;;;;;;;;;;5029301;28;20255;-62
2023/03/09 08:22:52;;;;;;;19.50;13.02;;;;;;;;;;5019468;28;20654;-62
2023/03/09 08:25:18;;;;;;;18.48;12.77;;;;;;;;;;5045322;28;20172;-62
2023/03/09 08:27:46;;;;;;;16.38;11.10;;;;;;;;;;5042860;28;20049;-64
2023/03/09 08:30:14;;;;;;;21.45;11.90;;;;;;;;;;5039303;28;20041;-62
2023/03/09 08:32:40;;;;;;;14.82;11.10;;;;;;;;;;5041976;28;20447;-62
2023/03/09 08:35:06;;;;;;;18.35;11.38;;;;;;;;;;5025026;28;20047;-62
2023/03/09 08:37:33;;;;;;;19.90;10.77;;;;;;;;;;5034017;28;20472;-62
2023/03/09 08:39:59;;;;;;;19.17;11.13;;;;;;;;;;5008119;28;20055;-63
2023/03/09 08:42:25;;;;;;;18.13;10.05;;;;;;;;;;5006436;28;20040;-62
2023/03/09 08:44:52;;;;;;;20.58;11.55;;;;;;;;;;5037535;28;20037;-62
2023/03/09 08:47:18;;;;;;;18.05;10.90;;;;;;;;;;5035011;28;20073;-62
2023/03/09 08:49:44;;;;;;;15.60;10.27;;;;;;;;;;5040987;28;20045;-62
2023/03/09 08:52:10;;;;;;;15.35;9.02;;;;;;;;;;5043150;28;20041;-62
2023/03/09 08:54:36;;;;;;;15.65;9.93;;;;;;;;;;5023686;28;20438;-63
2023/03/09 08:57:03;;;;;;;15.30;9.48;;;;;;;;;;5010305;28;20311;-62
2023/03/09 08:59:30;;;;;;;15.93;10.20;;;;;;;;;;5032345;28;20591;-62
2023/03/09 09:01:56;;;;;;;14.60;9.30;;;;;;;;;;5046984;28;20187;-62
2023/03/09 09:04:22;;;;;;;17.00;10.10;;;;;;;;;;5042956;28;20037;-62
2023/03/09 09:06:48;;;;;;;12.63;9.05;;;;;;;;;;5044451;28;20115;-62
2023/03/09 09:09:14;;;;;;;15.07;9.43;;;;;;;;;;5041412;28;20395;-62
2023/03/09 09:11:40;;;;;;;14.02;8.10;;;;;;;;;;5043985;28;20320;-62
2023/03/09 09:14:07;;;;;;;15.52;9.18;;;;;;;;;;5040518;28;20047;-63
2023/03/09 09:16:33;;;;;;;11.70;7.60;;;;;;;;;;5040069;28;20054;-62
2023/03/09 09:18:59;;;;;;;15.65;9.80;;;;;;;;;;5051628;28;20040;-62
2023/03/09 09:21:28;;;;;;;13.15;8.88;;;;;;;;;;5013356;28;20137;-62
2023/03/09 09:23:54;;;;;;;17.90;9.50;;;;;;;;;;4997429;28;20057;-62
2023/03/09 09:26:21;;;;;;;13.32;8.93;;;;;;;;;;5047981;28;20037;-62
2023/03/09 09:28:47;;;;;;;11.77;7.43;;;;;;;;;;5051499;28;20063;-63
2023/03/09 09:31:16;;;;;;;13.73;8.05;;;;;;;;;;5031644;28;20595;-62
2023/03/09 09:33:43;;;;;;;12.57;8.18;;;;;;;;;;5044219;28;20049;-62
2023/03/09 09:36:11;;;;;;;15.13;9.45;;;;;;;;;;5048603;28;20044;-62
2023/03/09 09:38:37;;;;;;;13.60;7.80;;;;;;;;;;5025399;28;20040;-61
2023/03/09 09:41:06;;;;;;;16.50;9.13;;;;;;;;;;5029320;28;20045;-62
2023/03/09 09:43:33;;;;;;;12.25;8.55;;;;;;;;;;5045750;28;20037;-62
2023/03/09 09:46:00;;;;;;;10.98;7.25;;;;;;;;;;5043064;28;20069;-62
2023/03/09 09:48:27;;;;;;;11.63;7.15;;;;;;;;;;5047301;28;20047;-62
2023/03/09 09:50:59;;;;;;;11.70;6.95;;;;;;;;;;5054918;28;20364;-62
2023/03/09 09:53:34;;;;;;;11.30;7.47;;;;;;;;;;5047552;28;20050;-62
2023/03/09 09:56:01;;;;;;;11.02;8.02;;;;;;;;;;5045009;28;20119;-62
2023/03/09 09:58:33;;;;;;;12.52;7.20;;;;;;;;;;5043485;28;20418;-62
2023/03/09 10:01:09;;;;;;;12.07;7.87;;;2.30;99.90;;;;;;5037546;28;20474;-62
2023/03/09 10:03:38;;;;;;;11.38;7.72;;;;;;;;;;5021949;28;20276;-62
2023/03/09 10:06:04;;;;;;;12.10;7.18;;;;;;;;;;5017529;28;20075;-61
2023/03/09 10:08:36;;;;;;;9.95;7.30;;;;;;;;;;5031392;28;20053;-62
2023/03/09 10:11:21;;;;;;;12.13;7.60;;;;;;;;;;5032756;28;20451;-62
2023/03/09 10:13:57;;;;;;;10.60;6.95;;;;;;;;;;5030552;28;20048;-62
2023/03/09 10:16:29;;;;;;;10.70;6.60;;;;;;;;;;5027031;28;20131;-62
2023/03/09 10:18:58;;;;;;;12.60;8.02;;;;;;;;;;5034853;28;20055;-62
2023/03/09 10:21:29;;;;;;;10.18;6.95;;;;;;;;;;5031065;28;20062;-62
2023/03/09 10:23:56;;;;;;;11.77;7.05;;;;;;;;;;5033351;28;20388;-62
2023/03/09 10:26:31;;;;;;;9.95;6.95;;;;;;;;;;5034177;28;20310;-62
2023/03/09 10:29:02;;;;;;;12.25;8.07;;;;;;;;;;5033169;28;20187;-63
2023/03/09 10:31:40;;;;;;;14.07;7.18;;;;;;;;;;5035769;28;20049;-62
2023/03/09 10:34:06;;;;;;;9.73;7.07;;;;;;;;;;5048587;28;20056;-62
2023/03/09 10:36:33;;;;;;;9.38;5.88;;;;;;;;;;5012704;28;20041;-62
2023/03/09 10:39:02;;;;;;;9.55;6.65;;;;;;;;;;5021239;28;20033;-63
2023/03/09 10:41:29;;;;;;;9.82;6.20;;;;;;;;;;5043649;28;20034;-62
2023/03/09 10:43:57;;;;;;;12.40;7.38;;;;;;;;;;5042044;28;20037;-62
2023/03/09 10:46:24;;;;;;;13.10;6.80;;;;;;;;;;5025869;28;20040;-62
2023/03/09 10:49:08;;;;;;;9.50;6.10;;;;;;;;;;5025437;28;20037;-62
2023/03/09 10:51:37;;;;;;;9.05;5.85;;;;;;;;;;5030032;28;20037;-62
2023/03/09 10:54:27;;;;;;;10.10;6.85;;;;;;;;;;5045164;28;22081;-62
2023/03/09 10:56:53;;;;;;;10.60;6.60;;;;;;;;;;5032589;28;20049;-62
2023/03/09 10:59:21;;;;;;;8.40;6.07;;;;;;;;;;5042975;28;20041;-62
2023/03/09 11:01:49;;;;;;;8.85;6.22;;;;;;;;;;5046596;28;20056;-62
2023/03/09 11:04:24;;;;;;;10.63;6.70;;;;;;;;;;5044527;28;20041;-62
2023/03/09 11:06:51;;;;;;;8.93;6.25;;;;;;;;;;5025955;28;20104;-62
2023/03/09 11:09:25;;;;;;;10.23;6.55;;;;;;;;;;5045086;28;20047;-62
2023/03/09 11:11:51;;;;;;;9.30;6.45;;;;;;;;;;5046154;28;20040;-62
2023/03/09 11:14:25;;;;;;;11.50;7.20;;;;;;;;;;5037524;28;20046;-62
2023/03/09 11:16:52;;;;;;;11.27;6.60;;;;;;;;;;5040684;28;20307;-63
2023/03/09 11:19:19;;;;;;;10.52;6.90;;;;;;;;;;5044373;28;20495;-63
2023/03/09 11:21:53;;;;;;;11.43;6.80;;;;;;;;;;5040267;28;20044;-63
2023/03/09 11:24:20;;;;;;;8.98;5.72;;;;;;;;;;5040423;28;20115;-63
2023/03/09 11:26:51;;;;;;;13.15;7.45;;;;;;;;;;5047696;28;20068;-63
2023/03/09 11:29:36;;;;;;;9.05;6.00;;;;;;;;;;5038922;28;20064;-64
2023/03/09 11:32:02;;;;;;;10.60;6.22;;;;;;;;;;5042512;28;20063;-64
2023/03/09 11:34:36;;;;;;;10.27;7.28;;;;;;;;;;5041189;28;20454;-63
2023/03/09 11:37:08;;;;;;;14.45;8.13;;;;;;;;;;5044563;28;20127;-63
2023/03/09 11:39:37;;;;;;;11.30;7.43;;;;;;;;;;5036841;28;20041;-64
2023/03/09 11:42:05;;;;;;;9.82;6.95;;;;;;;;;;5037306;28;20283;-63
2023/03/09 11:44:31;;;;;;;9.45;6.40;;;;;;;;;;5023987;28;20059;-63
2023/03/09 11:47:00;;;;;;;11.05;7.70;;;;;;;;;;5046897;28;20106;-63
2023/03/09 11:49:27;;;;;;;9.65;7.07;;;;;;;;;;5038742;28;20178;-63
2023/03/09 11:51:54;;;;;;;12.40;7.40;;;;;;;;;;5045502;28;20036;-63
2023/03/09 11:54:29;;;;;;;9.60;5.85;;;;;;;;;;5040708;28;20107;-64
2023/03/09 11:56:55;;;;;;;9.63;6.38;;;;;;;;;;5044217;28;20033;-64
2023/03/09 11:59:41;;;;;;;12.75;6.70;;;;;;;;;;5043793;28;20076;-64
2023/03/09 12:02:13;;;;;;;11.30;6.38;;;;;;;;;;5044723;28;20041;-63
2023/03/09 12:04:40;;;;;;;8.57;5.40;;;;;;;;;;5037764;28;20123;-63
2023/03/09 12:07:17;;;;;;;8.25;5.95;;;;;;;;;;5018584;28;20037;-64
2023/03/09 12:10:03;;;;;;;8.27;5.68;;;;;;;;;;5040700;28;20041;-63
2023/03/09 12:12:29;;;;;;;6.35;5.18;;;;;;;;;;5042499;28;20044;-63
2023/03/09 12:14:58;;;;;;;8.15;5.53;;;;;;;;;;5038486;28;20497;-63
2023/03/09 12:17:31;;;;;;;9.38;5.97;;;;;;;;;;5043180;28;20052;-63
2023/03/09 12:19:58;;;;;;;8.50;5.93;;;;;;;;;;5035831;28;20044;-63
2023/03/09 12:22:30;;;;;;;7.63;4.45;;;;;;;;;;5045888;28;20068;-63
2023/03/09 12:25:00;;;;;;;7.38;4.80;;;;;;;;;;5021618;28;20029;-63
2023/03/09 12:27:28;;;;;;;7.25;5.18;;;;;;;;;;5045083;28;20056;-63
2023/03/09 12:29:54;;;;;;;7.35;5.18;;;;;;;;;;5045195;28;20470;-63
2023/03/09 12:32:20;;;;;;;6.47;4.75;;;;;;;;;;5044623;28;20171;-63
2023/03/09 12:34:47;;;;;;;6.65;5.00;;;;;;;;;;5049162;28;20032;-63
2023/03/09 12:37:36;;;;;;;6.72;4.90;;;;;;;;;;5041417;28;20452;-63
2023/03/09 12:40:25;;;;;;;10.07;5.32;;;;;;;;;;5008289;28;20049;-63
2023/03/09 12:42:53;;;;;;;8.05;4.68;;;;;;;;;;5044133;28;20096;-63
2023/03/09 12:45:19;;;;;;;7.50;5.00;;;;;;;;;;5041700;28;20264;-63
2023/03/09 12:47:48;;;;;;;7.72;5.07;;;;;;;;;;5046626;28;20045;-63
2023/03/09 12:50:21;;;;;;;6.68;4.65;;;;;;;;;;5049174;28;20052;-63
2023/03/09 12:52:47;;;;;;;6.85;4.65;;;;;;;;;;5051381;28;20379;-63
2023/03/09 12:55:15;;;;;;;7.80;5.32;;;;;;;;;;5047028;28;20172;-63
2023/03/09 12:57:42;;;;;;;8.48;5.28;;;;;;;;;;5032564;28;20041;-63
2023/03/09 13:00:12;;;;;;;6.57;4.22;;;;;;;;;;5040076;28;20115;-63
2023/03/09 13:02:39;;;;;;;6.70;4.55;;;;;;;;;;5046322;28;20036;-64
2023/03/09 13:05:12;;;;;;;7.93;5.10;;;;;;;;;;5051468;28;20140;-63
2023/03/09 13:07:38;;;;;;;7.95;5.40;;;;;;;;;;5047480;28;20356;-63
2023/03/09 13:10:05;;;;;;;8.30;5.07;;;;;;;;;;5013690;28;20495;-63
2023/03/09 13:12:34;;;;;;;8.75;4.43;;;;;;;;;;5030325;28;20217;-63
2023/03/09 13:15:06;;;;;;;7.70;4.47;;;;;;;;;;5029794;28;20072;-63
2023/03/09 13:17:38;;;;;;;7.35;4.88;;;;;;;;;;5047464;28;20056;-63
2023/03/09 13:20:14;;;;;;;6.88;4.47;;;;;;;;;;5047763;28;20061;-63
2023/03/09 13:22:40;;;;;;;6.90;4.68;;;;;;;;;;5036424;28;20499;-63
2023/03/09 13:25:18;;;;;;;6.32;4.28;;;;;;;;;;5010721;28;20044;-63
2023/03/09 13:27:45;;;;;;;6.45;4.32;;;;;;;;;;5028098;28;20045;-63
2023/03/09 13:30:14;;;;;;;6.97;4.78;;;;;;;;;;5023301;28;20598;-63
2023/03/09 13:32:41;;;;;;;6.28;4.35;;;;;;;;;;5023262;28;20491;-63
2023/03/09 13:35:17;;;;;;;7.47;4.93;;;;;;;;;;5040160;28;20076;-63
2023/03/09 13:37:45;;;;;;;6.22;4.53;;;;;;;;;;5025328;28;20037;-63
2023/03/09 13:40:14;;;;;;;8.02;5.03;;;;;;;;;;5027177;28;20398;-63
2023/03/09 13:42:43;;;;;;;8.38;4.50;;;;;;;;;;4996238;28;20033;-63
2023/03/09 13:45:17;;;;;;;7.78;5.55;;;;;;;;;;5031247;28;20045;-63
2023/03/09 13:47:43;;;;;;;7.95;4.68;;;;;;;;;;5014510;28;20356;-63
2023/03/09 13:50:17;;;;;;;7.25;5.07;;;;;;;;;;5021982;28;20110;-63
2023/03/09 13:52:58;;;;;;;5.57;3.97;;;;;;;;;;5029373;28;20042;-63
2023/03/09 13:55:27;;;;;;;6.30;4.63;;;;;;;;;;5017832;28;20061;-63
2023/03/09 13:57:53;;;;;;;6.60;4.22;;;;;;;;;;5024549;28;20475;-63
2023/03/09 14:00:22;;;;;;;7.82;4.95;;;;;;;;;;5022539;28;20037;-63
2023/03/09 14:02:48;;;;;;;7.57;4.63;;;;;;;;;;5032618;28;20036;-63
2023/03/09 14:05:15;;;;;;;8.18;4.88;;;;;;;;;;5029916;28;20037;-63
2023/03/09 14:07:59;;;;;;;7.15;4.30;;;;;;;;;;5031401;28;20064;-63
2023/03/09 14:10:31;;;;;;;7.32;5.05;;;;;;;;;;5024729;28;20504;-63
2023/03/09 14:13:00;;;;;;;6.97;5.10;;;;;;;;;;5031320;28;20407;-63
2023/03/09 14:15:27;;;;;;;9.93;5.82;;;;;;;;;;5029216;28;20084;-63
2023/03/09 14:17:53;;;;;;;9.88;5.50;;;;;;;;;;5013717;28;20522;-62
2023/03/09 14:20:28;;;;;;;8.70;5.65;;;;;;;;;;5013114;28;20064;-63
2023/03/09 14:22:54;;;;;;;10.35;5.30;;;;;;;;;;5029325;28;20449;-63
2023/03/09 14:25:30;;;;;;;8.32;5.10;;;;;;;;;;5047494;28;20029;-63
2023/03/09 14:27:59;;;;;;;9.20;5.78;;;;;;;;;;5042241;28;20148;-63
2023/03/09 14:30:28;;;;;;;8.45;5.80;;;;;;;;;;5051180;28;20090;-63